Forside
METAR-TAF:

METAR-TAF

Lufthavne :

Niamey, Niger

Breddekreds: 13-29N, længdekreds: 002-10E, højde: 223 m

Aktuelle vejr

Denne rapport blev lavet for 1 time og 15 minutter siden, kl. 16:00 UTC
Vind 6 kt fra sydsydvest, varierende mellem sydsydøst og sydvest
Temperatur 39°C
Fugtighed 23%
Tryk 1010 hPa
Sigt 10 km eller mere
Nogle få skyer i en højde af 3000 ft

METAR: DRRN 161600Z 21006KT 160V230 9999 FEW030 39/14 Q1010 NOSIG

Tid: 18:15 (17:15 UTC)

Vejrudsigter

Denne rapport blev lavet for 6 timer og 15 minutter siden, kl. 11:00 UTC
Foreløbig gælder fra 16 på 12 UTC til 17 på 18 UTC
Vind 8 kt fra vest
Sigt: 8000 m
Nogle få skyer i en højde af 3000 ft
Sandsynlighed 30% :
Midlertidig
fra 16 på 16 UTC til 16 på 22 UTC
Vind 25 kt fra varierende retninger
Sigt: 2000 m
Nogle få skyer i en højde af 3300 ft, Cumulonimbus.
blæsende støv, tordenbyger, let regn

TAF: DRRN 161100Z 1612/1718 26008KT 8000 FEW030 PROB30 TEMPO 1616/1622 VRB25KT 2000 BLDU -TSRA FEW033CB

Vejrobservationer og prognoser fra mere end 4000 lufthavne (METAR og TAF).

De gule og røde prikker repræsenterer de meteorologiske stationer.

Flyt musen over at se navnet på stationen.

Så klik over at se vejr observationer og prognoser.

At skifte det kort: Klik på de grønne knapper med et sort kors for at zoome ind; på den grønne knap med en bindestreg for at zoome ud; eller på de grønne pile for tilstødende kort.


METAR-TAF: